Time;durP1;ratioP1;P1;durP2;ratioP2;P2;SDS_P1;SDS_P2;PMS_P1;PMS_P2;Temp;Humidity;BMP_temperature;BMP_pressure;BME280_temperature;BME280_humidity;BME280_pressure;Samples;Min_cycle;Max_cycle;Signal;HPM_P1;HPM_P2
2024/01/30 00:01:02;;;;;;;15.35;7.35;;;;;;;;;;5004031;28;20010;-76
2024/01/30 00:03:29;;;;;;;15.27;6.63;;;;;;;;;;5003887;28;20072;-77
2024/01/30 00:05:55;;;;;;;15.45;6.55;;;;;;;;;;5001882;28;20010;-75
2024/01/30 00:08:23;;;;;;;14.48;7.78;;;;;;;;;;5004442;28;20161;-74
2024/01/30 00:10:48;;;;;;;12.25;6.57;;;;;;;;;;5003572;28;20022;-77
2024/01/30 00:13:17;;;;;;;14.35;7.63;;;;;;;;;;5001512;28;20089;-78
2024/01/30 00:15:43;;;;;;;22.10;8.30;;;;;;;;;;5005838;28;20022;-75
2024/01/30 00:18:29;;;;;;;17.42;8.20;;;;;;;;;;5000837;28;20092;-75
2024/01/30 00:20:54;;;;;;;20.15;7.45;;;;;;;;;;5002250;28;20432;-76
2024/01/30 00:23:23;;;;;;;22.95;8.15;;;;;;;;;;5001181;28;20049;-76
2024/01/30 00:26:02;;;;;;;17.67;7.70;;;;;;;;;;5004741;28;20021;-73
2024/01/30 00:28:27;;;;;;;16.52;8.40;;;;;;;;;;5023525;28;20022;-75
2024/01/30 00:30:53;;;;;;;16.20;7.68;;;;;;;;;;5006950;28;20376;-75
2024/01/30 00:33:18;;;;;;;16.92;8.98;;;;;;;;;;5007158;28;20022;-75
2024/01/30 00:35:44;;;;;;;24.58;8.93;;;;;;;;;;5007948;28;20015;-76
2024/01/30 00:38:09;;;;;;;15.55;8.25;;;;;;;;;;4987294;28;20039;-76
2024/01/30 00:40:36;;;;;;;18.63;8.95;;;;;;;;;;4988084;28;20444;-75
2024/01/30 00:43:03;;;;;;;23.73;9.30;;;;;;;;;;4987188;28;20018;-75
2024/01/30 00:45:29;;;;;;;15.93;8.90;;;;;;;;;;4986440;28;20026;-75
2024/01/30 00:47:56;;;;;;;20.38;9.45;;;;;;;;;;4987992;28;20029;-76
2024/01/30 00:50:21;;;;;;;24.77;9.60;;;;;;;;;;4988311;28;20380;-77
2024/01/30 00:52:47;;;;;;;15.85;8.80;;;;;;;;;;4986465;28;20023;-75
2024/01/30 00:55:15;;;;;;;20.98;10.43;;;;;;;;;;4989499;28;20019;-75
2024/01/30 00:57:40;;;;;;;29.20;10.82;;;;;;;;;;4989564;28;20022;-77
2024/01/30 01:00:08;;;;;;;27.13;11.18;;;;;;;;;;4988934;28;20376;-76
2024/01/30 01:02:36;;;;;;;29.52;13.00;;;;;;;;;;4989839;28;20030;-76
2024/01/30 01:05:01;;;;;;;27.55;13.75;;;;;;;;;;4989124;28;20388;-77
2024/01/30 01:07:27;;;;;;;30.80;13.07;;;;;;;;;;4974163;28;20152;-75
2024/01/30 01:09:53;;;;;;;27.60;14.15;;;;;;;;;;4992351;28;20026;-77
2024/01/30 01:12:19;;;;;;;26.92;16.17;;;;;;;;;;4992112;28;20022;-77
2024/01/30 01:14:47;;;;;;;28.30;14.18;;;;;;;;;;4987456;28;20026;-77
2024/01/30 01:17:13;;;;;;;36.25;16.90;;;;;;;;;;4987163;28;20095;-77
2024/01/30 01:19:38;;;;;;;26.10;14.55;;;;;;;;;;4977343;28;20026;-74
2024/01/30 01:22:03;;;;;;;26.42;14.48;;;;;;;;;;4970439;28;20022;-75
2024/01/30 01:24:32;;;;;;;27.35;14.60;;;;;;;;;;4985198;28;20033;-75
2024/01/30 01:26:59;;;;;;;33.08;14.60;;;;;;;;;;4988071;28;20077;-74
2024/01/30 01:29:29;;;;;;;29.63;14.77;;;;;;;;;;4986917;28;20064;-76
2024/01/30 01:31:55;;;;;;;27.92;13.45;;;;;;;;;;4980512;28;20048;-75
2024/01/30 01:34:22;;;;;;;28.98;14.55;;;;;;;;;;4989231;28;20090;-76
2024/01/30 01:36:47;;;;;;;28.63;13.85;;;;;;;;;;4989552;28;20058;-76
2024/01/30 01:39:13;;;;;;;27.08;14.70;;;;;;;;;;5006239;28;20023;-76
2024/01/30 01:41:39;;;;;;;25.30;12.73;;;;;;;;;;5005939;28;20121;-75
2024/01/30 01:44:09;;;;;;;29.38;12.77;;;;;;;;;;5006920;28;20508;-76
2024/01/30 01:46:34;;;;;;;29.20;12.77;;;;;;;;;;5003117;28;20041;-76
2024/01/30 01:49:13;;;;;;;24.50;12.63;;;;;;;;;;5006528;28;20387;-76
2024/01/30 01:51:40;;;;;;;26.40;13.07;;;;;;;;;;5007716;28;20128;-76
2024/01/30 01:54:27;;;;;;;27.70;13.15;;;;;;;;;;5006667;28;20079;-77
2024/01/30 01:57:13;;;;;;;31.33;13.63;;;;;;;;;;5006760;28;20452;-76
2024/01/30 01:59:43;;;;;;;31.13;14.30;;;;;;;;;;5004563;28;20027;-75
2024/01/30 02:02:11;;;;;;;25.27;14.30;;;;;;;;;;5004854;28;20053;-75
2024/01/30 02:04:45;;;;;;;30.10;13.57;;;;;;;;;;5012856;28;20438;-74
2024/01/30 02:07:11;;;;;;;27.50;13.95;;;;;;;;;;5004513;28;20438;-75
2024/01/30 02:09:36;;;;;;;30.77;13.82;;;;;;;;;;5005002;28;20026;-75
2024/01/30 02:12:02;;;;;;;27.92;13.25;;;;;;;;;;5006252;28;20045;-76
2024/01/30 02:14:27;;;;;;;35.72;14.30;;;;;;;;;;5019121;28;20049;-75
2024/01/30 02:16:53;;;;;;;32.40;14.88;;;;;;;;;;5004706;28;20033;-73
2024/01/30 02:19:19;;;;;;;26.95;14.05;;;;;;;;;;5003631;28;20022;-75
2024/01/30 02:21:46;;;;;;;32.17;14.68;;;;;;;;;;5007135;28;20064;-74
2024/01/30 02:24:12;;;;;;;28.80;14.40;;;;;;;;;;5010379;28;20023;-74
2024/01/30 02:26:39;;;;;;;33.65;15.20;;;;;;;;;;5011919;28;20022;-76
2024/01/30 02:29:08;;;;;;;31.38;14.90;;;;;;;;;;5008129;28;20030;-76
2024/01/30 02:31:36;;;;;;;34.90;15.40;;;;;;;;;;5012117;28;20046;-76
2024/01/30 02:34:02;;;;;;;36.67;14.75;;;;;;;;;;5005023;28;20019;-76
2024/01/30 02:36:27;;;;;;;32.65;15.13;;;;;;;;;;5003905;28;20381;-75
2024/01/30 02:38:53;;;;;;;28.20;12.75;;;;;;;;;;5006767;28;20029;-75
2024/01/30 02:41:19;;;;;;;29.58;14.32;;;;;;;;;;5005204;28;20051;-76
2024/01/30 02:43:47;;;;;;;23.48;13.45;;;;;;;;;;5004080;28;20472;-76
2024/01/30 02:46:13;;;;;;;22.50;12.73;;;;;;;;;;5001103;28;20021;-75
2024/01/30 02:48:39;;;;;;;29.55;13.65;;;;;;;;;;5004975;28;20038;-73
2024/01/30 02:51:06;;;;;;;25.35;11.80;;;;;;;;;;5003920;28;20128;-74
2024/01/30 02:53:32;;;;;;;23.02;12.00;;;;;;;;;;5003862;28;20109;-74
2024/01/30 02:55:59;;;;;;;25.88;12.95;;;;;;;;;;5003330;28;20029;-75
2024/01/30 02:58:24;;;;;;;28.65;14.05;;;;;;;;;;5003066;28;20041;-76
2024/01/30 03:00:50;;;;;;;34.80;16.13;;;;;;;;;;5006742;28;20096;-75
2024/01/30 03:03:16;;;;;;;34.45;15.52;;;;;;;;;;5005576;28;20345;-76
2024/01/30 03:05:41;;;;;;;32.38;13.98;;;;;;;;;;5005216;28;20029;-74
2024/01/30 03:08:07;;;;;;;30.73;14.20;;;;;;;;;;5003946;28;20018;-73
2024/01/30 03:10:33;;;;;;;31.20;15.23;;;;;;;;;;5001177;28;20039;-74
2024/01/30 03:12:59;;;;;;;28.33;14.73;;;;;;;;;;5005416;28;20027;-76
2024/01/30 03:15:27;;;;;;;33.70;15.10;;;;;;;;;;5000021;28;20121;-74
2024/01/30 03:17:54;;;;;;;28.63;12.80;;;;;;;;;;4999151;28;20464;-76
2024/01/30 03:20:19;;;;;;;32.40;13.40;;;;;;;;;;5003188;28;20018;-75
2024/01/30 03:22:45;;;;;;;24.20;12.13;;;;;;;;;;5019630;28;20025;-74
2024/01/30 03:25:11;;;;;;;28.58;14.23;;;;;;;;;;5002480;28;20060;-74
2024/01/30 03:27:37;;;;;;;31.95;15.27;;;;;;;;;;5006957;28;20080;-75
2024/01/30 03:30:05;;;;;;;26.90;14.60;;;;;;;;;;5002386;28;20034;-74
2024/01/30 03:32:31;;;;;;;29.92;14.35;;;;;;;;;;5003053;28;20468;-74
2024/01/30 03:34:59;;;;;;;26.85;12.48;;;;;;;;;;5004839;28;20424;-74
2024/01/30 03:37:28;;;;;;;27.65;13.27;;;;;;;;;;5003105;28;20053;-74
2024/01/30 03:39:53;;;;;;;23.25;12.57;;;;;;;;;;5002209;28;20093;-75
2024/01/30 03:42:20;;;;;;;32.45;13.90;;;;;;;;;;5019958;28;20025;-74
2024/01/30 03:44:54;;;;;;;26.75;13.77;;;;;;;;;;5001613;28;20396;-77
2024/01/30 03:47:21;;;;;;;29.42;14.95;;;;;;;;;;5005579;28;20100;-76
2024/01/30 03:49:48;;;;;;;29.02;14.35;;;;;;;;;;4999669;28;20084;-74
2024/01/30 03:52:14;;;;;;;29.92;14.13;;;;;;;;;;5004342;28;20537;-75
2024/01/30 03:54:42;;;;;;;28.98;14.75;;;;;;;;;;5001296;28;20019;-75
2024/01/30 03:57:09;;;;;;;29.05;15.15;;;;;;;;;;5004482;28;20024;-75
2024/01/30 03:59:34;;;;;;;29.27;14.52;;;;;;;;;;5004164;28;20053;-74
2024/01/30 04:02:02;;;;;;;28.95;13.88;;;;;;;;;;5001751;28;20038;-75
2024/01/30 04:04:28;;;;;;;28.23;14.60;;;;;;;;;;5004594;28;20025;-74
2024/01/30 04:06:53;;;;;;;32.92;16.15;;;;;;;;;;5001254;28;20375;-75
2024/01/30 04:09:20;;;;;;;30.20;14.50;;;;;;;;;;5002225;28;20019;-75
2024/01/30 04:11:48;;;;;;;33.33;15.05;;;;;;;;;;5004881;28;20101;-76
2024/01/30 04:14:16;;;;;;;27.17;13.93;;;;;;;;;;5001161;28;20460;-75
2024/01/30 04:16:44;;;;;;;24.05;12.82;;;;;;;;;;5002251;28;20076;-74
2024/01/30 04:19:09;;;;;;;33.50;14.75;;;;;;;;;;5002430;28;20490;-76
2024/01/30 04:21:34;;;;;;;31.23;14.23;;;;;;;;;;5005215;28;20030;-73
2024/01/30 04:24:07;;;;;;;32.40;17.30;;;;;;;;;;5001891;28;20088;-74
2024/01/30 04:26:33;;;;;;;31.40;15.57;;;;;;;;;;5003215;28;20026;-74
2024/01/30 04:29:08;;;;;;;34.85;16.65;;;;;;;;;;5004860;28;20018;-73
2024/01/30 04:31:54;;;;;;;28.95;14.85;;;;;;;;;;5002877;28;20022;-76
2024/01/30 04:34:22;;;;;;;25.85;12.98;;;;;;;;;;5001527;28;20026;-74
2024/01/30 04:36:47;;;;;;;29.67;14.45;;;;;;;;;;5002580;28;20086;-74
2024/01/30 04:39:13;;;;;;;29.83;13.70;;;;;;;;;;5005489;28;20054;-75
2024/01/30 04:41:39;;;;;;;35.90;17.73;;;;;;;;;;5004741;28;20026;-76
2024/01/30 04:44:07;;;;;;;34.80;17.98;;;;;;;;;;5000956;28;20011;-76
2024/01/30 04:46:34;;;;;;;37.45;18.10;;;;;;;;;;5001301;28;20357;-76
2024/01/30 04:49:00;;;;;;;45.50;21.08;;;;;;;;;;5004735;28;20006;-77
2024/01/30 04:51:25;;;;;;;42.83;20.20;;;;;;;;;;5003787;28;20365;-77
2024/01/30 04:53:53;;;;;;;41.63;20.33;;;;;;;;;;5003848;28;20014;-77
2024/01/30 04:56:18;;;;;;;39.95;20.33;;;;;;;;;;4995589;28;20026;-77
2024/01/30 04:58:44;;;;;;;39.13;19.45;;;;;;;;;;5003500;28;20102;-77
2024/01/30 05:01:14;;;;;;;30.92;15.85;;;;;;;;;;5005724;28;20014;-76
2024/01/30 05:03:43;;;;;;;35.97;15.13;;;;;;;;;;5003451;28;20472;-78
2024/01/30 05:06:08;;;;;;;35.15;18.13;;;;;;;;;;5008470;28;20129;-77
2024/01/30 05:08:38;;;;;;;31.55;15.50;;;;;;;;;;5001809;28;20443;-78
2024/01/30 05:11:07;;;;;;;32.85;16.38;;;;;;;;;;5009353;28;20022;-77
2024/01/30 05:13:35;;;;;;;30.40;15.38;;;;;;;;;;5006905;28;20026;-77
2024/01/30 05:16:01;;;;;;;34.25;17.20;;;;;;;;;;5006849;28;20081;-76
2024/01/30 05:18:28;;;;;;;29.67;15.18;;;;;;;;;;5011226;28;20020;-77
2024/01/30 05:20:54;;;;;;;29.83;15.88;;;;;;;;;;5017755;28;20021;-76
2024/01/30 05:23:23;;;;;;;29.35;14.30;;;;;;;;;;5019670;28;20014;-78
2024/01/30 05:25:50;;;;;;;43.63;21.80;;;;;;;;;;5014532;28;20093;-79
2024/01/30 05:28:23;;;;;;;38.38;21.13;;;;;;;;;;5010286;28;20032;-79
2024/01/30 05:30:50;;;;;;;35.70;17.98;;;;;;;;;;5010045;28;20544;-75
2024/01/30 05:33:18;;;;;;;32.70;16.90;;;;;;;;;;5011184;28;20053;-76
2024/01/30 05:35:49;;;;;;;44.03;20.13;;;;;;;;;;5007042;28;20026;-75
2024/01/30 05:38:17;;;;;;;38.30;19.58;;;;;;;;;;5007323;28;20050;-76
2024/01/30 05:40:43;;;;;;;30.90;16.30;;;;;;;;;;5007569;28;20022;-76
2024/01/30 05:43:08;;;;;;;40.15;19.08;;;;;;;;;;5002899;28;20019;-77
2024/01/30 05:45:36;;;;;;;29.92;17.17;;;;;;;;;;5006618;28;20033;-74
2024/01/30 05:48:01;;;;;;;35.28;17.13;;;;;;;;;;5008031;28;20079;-77
2024/01/30 05:50:47;;;;;;;33.78;15.68;;;;;;;;;;5009859;28;20033;-76
2024/01/30 05:53:13;;;;;;;39.75;19.92;;;;;;;;;;5006419;28;20050;-75
2024/01/30 05:55:42;;;;;;;39.40;21.38;;;;;;;;;;5008291;28;20021;-78
2024/01/30 05:58:08;;;;;;;43.70;25.17;;;;;;;;;;5009699;28;20024;-78
2024/01/30 06:00:33;;;;;;;39.17;20.95;;;;;;;;;;5010067;28;20021;-76
2024/01/30 06:02:59;;;;;;;50.20;24.60;;;;;;;;;;5004870;28;20427;-77
2024/01/30 06:05:26;;;;;;;39.40;20.42;;;;;;;;;;5004538;28;20018;-74
2024/01/30 06:07:51;;;;;;;37.28;18.98;;;;;;;;;;5003572;28;20022;-76
2024/01/30 06:10:17;;;;;;;31.35;16.80;;;;;;;;;;5004838;28;20025;-77
2024/01/30 06:12:43;;;;;;;46.45;20.83;;;;;;;;;;5006587;28;20030;-77
2024/01/30 06:15:12;;;;;;;41.60;20.98;;;;;;;;;;5007937;28;20037;-77
2024/01/30 06:17:39;;;;;;;40.55;19.17;;;;;;;;;;5005221;28;20026;-75
2024/01/30 06:20:06;;;;;;;39.47;18.50;;;;;;;;;;5004588;28;20102;-75
2024/01/30 06:22:38;;;;;;;47.80;24.02;;;;;;;;;;4998114;28;20018;-77
2024/01/30 06:25:04;;;;;;;27.63;14.30;;;;;;;;;;4995360;28;20093;-76
2024/01/30 06:27:31;;;;;;;32.92;14.38;;;;;;;;;;4996471;28;20412;-79
2024/01/30 06:29:57;;;;;;;42.10;21.20;;;;;;;;;;4995661;28;20415;-76
2024/01/30 06:32:23;;;;;;;45.22;20.60;;;;;;;;;;4995788;28;20050;-75
2024/01/30 06:34:48;;;;;;;39.90;19.90;;;;;;;;;;5004867;28;20014;-77
2024/01/30 06:37:14;;;;;;;44.78;18.17;;;;;;;;;;4997013;28;20046;-78
2024/01/30 06:39:41;;;;;;;37.75;18.60;;;;;;;;;;5002003;28;20372;-77
2024/01/30 06:42:07;;;;;;;43.55;19.25;;;;;;;;;;5001239;28;20022;-76
2024/01/30 06:44:41;;;;;;;40.75;20.25;;;;;;;;;;4996886;28;20034;-77
2024/01/30 06:47:07;;;;;;;42.70;20.70;;;;;;;;;;4995298;28;20034;-77
2024/01/30 06:49:33;;;;;;;41.92;21.27;;;;;;;;;;4995513;28;20384;-77
2024/01/30 06:51:59;;;;;;;46.72;19.38;;;;;;;;;;4995800;28;20037;-76
2024/01/30 06:54:24;;;;;;;42.88;21.75;;;;;;;;;;4995516;28;20050;-76
2024/01/30 06:56:50;;;;;;;46.08;22.33;;;;;;;;;;4995417;28;20026;-76
2024/01/30 06:59:18;;;;;;;42.13;21.75;;;;;;;;;;4995790;28;20022;-83
2024/01/30 07:01:44;;;;;;;45.28;21.17;;;;;;;;;;4995959;28;20057;-86
2024/01/30 07:04:11;;;;;;;53.13;25.63;;;;;;;;;;4996511;28;20054;-78
2024/01/30 07:06:36;;;;;;;47.85;22.38;;;;;;;;;;4992724;28;20057;-79
2024/01/30 07:09:03;;;;;;;48.50;21.67;;;;;;;;;;4995458;28;20462;-78
2024/01/30 07:11:28;;;;;;;44.72;20.75;;;;;;;;;;4994232;28;20395;-79
2024/01/30 07:13:54;;;;;;;45.25;20.90;;;;;;;;;;4996030;28;20014;-79
2024/01/30 07:16:22;;;;;;;55.67;22.60;;;;;;;;;;4994875;28;20038;-78
2024/01/30 07:18:49;;;;;;;43.17;20.52;;;;;;;;;;4995520;28;20053;-79
2024/01/30 07:21:15;;;;;;;35.08;19.27;;;;;;;;;;4995260;28;20100;-78
2024/01/30 07:23:42;;;;;;;43.53;23.08;;;;;;;;;;4994988;28;20419;-78
2024/01/30 07:26:08;;;;;;;42.35;19.67;;;;;;;;;;4994834;28;20213;-80
2024/01/30 07:28:34;;;;;;;38.28;18.42;;;;;;;;;;4994414;28;20126;-79
2024/01/30 07:30:59;;;;;;;34.25;17.25;;;;;;;;;;4995562;28;20105;-78
2024/01/30 07:33:25;;;;;;;31.13;15.88;;;;;;;;;;4993584;28;20061;-80
2024/01/30 07:35:52;;;;;;;23.88;9.88;;;;;;;;;;4994519;28;20053;-82
2024/01/30 07:38:17;;;;;;;17.73;8.15;;;;;;;;;;4993415;28;20085;-80
2024/01/30 07:40:42;;;;;;;13.25;6.88;;;;;;;;;;4993889;28;20018;-81
2024/01/30 07:43:08;;;;;;;18.00;5.63;;;;;;;;;;4994544;28;20042;-77
2024/01/30 07:45:33;;;;;;;12.98;6.03;;;;;;;;;;4994764;28;20539;-80
2024/01/30 07:47:59;;;;;;;10.50;5.30;;;;;;;;;;4995008;28;20037;-79
2024/01/30 07:50:25;;;;;;;12.05;5.22;;;;;;;;;;4993445;28;20030;-79
2024/01/30 07:52:54;;;;;;;9.20;5.30;;;;;;;;;;4995207;28;20030;-78
2024/01/30 07:55:20;;;;;;;9.75;5.07;;;;;;;;;;4994855;28;20033;-80
2024/01/30 07:57:45;;;;;;;14.52;5.95;;;;;;;;;;4995679;28;20026;-82
2024/01/30 08:00:11;;;;;;;16.40;6.15;;;;;;;;;;4977526;28;20026;-80
2024/01/30 08:02:36;;;;;;;8.95;5.00;;;;;;;;;;4965891;28;20034;-80
2024/01/30 08:05:02;;;;;;;10.93;5.65;;;;;;;;;;4958332;28;20401;-81
2024/01/30 08:07:29;;;;;;;17.60;6.05;;;;;;;;;;4971350;28;20062;-80
2024/01/30 08:09:56;;;;;;;14.10;6.07;;;;;;;;;;4957810;28;20070;-80
2024/01/30 08:12:22;;;;;;;16.50;6.32;;;;;;;;;;4975433;28;20035;-79
2024/01/30 08:14:49;;;;;;;14.02;6.03;;;;;;;;;;4975289;28;20047;-80
2024/01/30 08:17:15;;;;;;;11.20;5.80;;;;;;;;;;4975353;28;20035;-80
2024/01/30 08:19:40;;;;;;;10.32;5.22;;;;;;;;;;4973345;28;20404;-78
2024/01/30 08:22:07;;;;;;;10.32;5.63;;;;;;;;;;4974251;28;20023;-78
2024/01/30 08:24:33;;;;;;;11.70;6.13;;;;;;;;;;4975342;28;20031;-79
2024/01/30 08:27:02;;;;;;;10.30;5.93;;;;;;;;;;4977089;28;20031;-80
2024/01/30 08:29:30;;;;;;;10.25;5.55;;;;;;;;;;4979045;28;20086;-80
2024/01/30 08:31:55;;;;;;;12.13;5.88;;;;;;;;;;4981761;28;20037;-79
2024/01/30 08:34:24;;;;;;;10.63;5.72;;;;;;;;;;4995497;28;20018;-79
2024/01/30 08:36:50;;;;;;;18.08;5.65;;;;;;;;;;5005709;28;20054;-79
2024/01/30 08:39:15;;;;;;;13.35;5.60;;;;;;;;;;5015069;28;20024;-79
2024/01/30 08:41:42;;;;;;;14.68;6.70;;;;;;;;;;5012110;28;20403;-79
2024/01/30 08:44:07;;;;;;;9.15;6.00;;;;;;;;;;5013365;28;20018;-79
2024/01/30 08:46:33;;;;;;;10.25;5.40;;;;;;;;;;5012051;28;20539;-79
2024/01/30 08:49:00;;;;;;;13.07;5.35;;;;;;;;;;5019491;28;20483;-83
2024/01/30 08:51:25;;;;;;;12.10;5.68;;;;;;;;;;5017907;28;20050;-83
2024/01/30 08:53:52;;;;;;;8.88;5.53;;;;;;;;;;5012962;28;20037;-82
2024/01/30 08:56:18;;;;;;;18.70;10.02;;;;;;;;;;5019041;28;20014;-84
2024/01/30 08:58:43;;;;;;;9.52;5.30;;;;;;;;;;5019076;28;20052;-88
2024/01/30 09:01:09;;;;;;;7.65;4.80;;;;;;;;;;5019592;28;20139;-84
2024/01/30 09:03:36;;;;;;;7.68;4.88;;;;;;;;;;5020079;28;20022;-84
2024/01/30 09:06:01;;;;;;;10.68;5.35;;;;;;;;;;5019705;28;20026;-86
2024/01/30 09:08:27;;;;;;;13.02;5.85;;;;;;;;;;5018855;28;20030;-83
2024/01/30 09:10:52;;;;;;;11.07;5.45;;;;;;;;;;5019201;28;20486;-87
2024/01/30 09:13:17;;;;;;;10.75;5.13;;;;;;;;;;5020949;28;20064;-82
2024/01/30 09:15:42;;;;;;;11.02;5.80;;;;;;;;;;5018526;28;20129;-83
2024/01/30 09:18:09;;;;;;;8.45;5.22;;;;;;;;;;5016903;28;20030;-82
2024/01/30 09:20:34;;;;;;;12.95;5.75;;;;;;;;;;5016447;28;20408;-77
2024/01/30 09:23:03;;;;;;;13.40;5.55;;;;;;;;;;5015611;28;20052;-77
2024/01/30 09:25:29;;;;;;;10.20;5.32;;;;;;;;;;5016808;28;20368;-78
2024/01/30 09:27:55;;;;;;;9.60;5.00;;;;;;;;;;5017133;28;20030;-78
2024/01/30 09:30:20;;;;;;;9.18;5.63;;;;;;;;;;5003259;28;20023;-80
2024/01/30 09:32:46;;;;;;;11.07;4.70;;;;;;;;;;4995742;28;20061;-79
2024/01/30 09:35:11;;;;;;;11.65;5.38;;;;;;;;;;4995022;28;20468;-78
2024/01/30 09:37:36;;;;;;;9.77;5.13;;;;;;;;;;4994798;28;20569;-80
2024/01/30 09:40:02;;;;;;;11.40;5.72;;;;;;;;;;4998404;28;20026;-80
2024/01/30 09:42:35;;;;;;;9.55;4.93;;;;;;;;;;4999876;28;20018;-79
2024/01/30 09:45:01;;;;;;;8.60;4.60;;;;;;;;;;5000314;28;20033;-78
2024/01/30 09:47:26;;;;;;;10.15;5.28;;;;;;;;;;4999161;28;20022;-81
2024/01/30 09:49:52;;;;;;;11.10;5.45;;;;;;;;;;4999258;28;20030;-79
2024/01/30 09:52:18;;;;;;;10.40;5.15;;;;;;;;;;5014174;28;20019;-78
2024/01/30 09:54:45;;;;;;;11.07;5.78;;;;;;;;;;4998872;28;20496;-79
2024/01/30 09:57:11;;;;;;;10.13;5.25;;;;;;;;;;5011928;28;20034;-77
2024/01/30 09:59:36;;;;;;;8.75;4.82;;;;;;;;;;4997431;28;20102;-79
2024/01/30 10:02:04;;;;;;;8.27;4.70;;;;;;;;;;4997798;28;20057;-78
2024/01/30 10:04:29;;;;;;;9.50;5.00;;;;;;;;;;5001650;28;20109;-80
2024/01/30 10:06:54;;;;;;;12.55;5.18;;;;;;;;;;5000951;28;20058;-79
2024/01/30 10:09:19;;;;;;;8.73;4.53;;;;;;;;;;5001914;28;20031;-79
2024/01/30 10:11:45;;;;;;;6.80;4.60;;;;;;;;;;5001383;28;20128;-80
2024/01/30 10:14:10;;;;;;;9.60;5.78;;;;;;;;;;5001161;28;20018;-79
2024/01/30 10:16:35;;;;;;;10.18;5.28;;;;;;;;;;5000833;28;20092;-81
2024/01/30 10:19:01;;;;;;;8.05;5.22;;;;;;;;;;4996544;28;20077;-80
2024/01/30 10:21:26;;;;;;;9.52;4.97;;;;;;;;;;4994562;28;20093;-81
2024/01/30 10:23:52;;;;;;;8.07;5.68;;;;;;;;;;4995915;28;20530;-79
2024/01/30 10:26:17;;;;;;;8.90;5.35;;;;;;;;;;4997331;28;20018;-79
2024/01/30 10:28:42;;;;;;;10.23;5.20;;;;;;;;;;4997827;28;20023;-78
2024/01/30 10:31:08;;;;;;;7.05;4.47;;;;;;;;;;4996933;28;20038;-78
2024/01/30 10:33:34;;;;;;;11.68;4.90;;;;;;;;;;4995705;28;20026;-78
2024/01/30 10:36:01;;;;;;;13.65;4.80;;;;;;;;;;4995366;28;20029;-78
2024/01/30 10:38:28;;;;;;;9.48;4.78;;;;;;;;;;4994468;28;20100;-78
2024/01/30 10:40:56;;;;;;;10.57;4.57;;;;;;;;;;5008427;28;20025;-81
2024/01/30 10:43:22;;;;;;;9.82;5.07;;;;;;;;;;4995949;28;20019;-81
2024/01/30 10:45:49;;;;;;;6.50;4.72;;;;;;;;;;4996388;28;20093;-80
2024/01/30 10:48:16;;;;;;;6.70;4.65;;;;;;;;;;4993742;28;20019;-79
2024/01/30 10:50:42;;;;;;;8.63;4.90;;;;;;;;;;4995758;28;20035;-79
2024/01/30 10:53:08;;;;;;;10.15;4.95;;;;;;;;;;4995565;28;20024;-77
2024/01/30 10:55:34;;;;;;;11.55;5.10;;;;;;;;;;4995276;28;20384;-78
2024/01/30 10:58:00;;;;;;;10.25;4.82;;;;;;;;;;4994818;28;20026;-77
2024/01/30 11:00:26;;;;;;;12.50;5.38;;;;;;;;;;4994913;28;20042;-80
2024/01/30 11:02:51;;;;;;;9.73;4.68;;;;;;;;;;4994984;28;20093;-80
2024/01/30 11:05:23;;;;;;;10.20;4.93;;;;;;;;;;4993577;28;20053;-78
2024/01/30 11:07:49;;;;;;;7.40;4.68;;;;;;;;;;4993170;28;20019;-78
2024/01/30 11:10:15;;;;;;;9.80;4.80;;;;;;;;;;4994653;28;20069;-79
2024/01/30 11:12:45;;;;;;;6.30;4.50;;;;;;;;;;4994850;28;20018;-77
2024/01/30 11:15:14;;;;;;;8.27;4.70;;;;;;;;;;4994549;28;20030;-78
2024/01/30 11:17:40;;;;;;;7.28;4.63;;;;;;;;;;4995127;28;20108;-79
2024/01/30 11:20:09;;;;;;;7.50;4.53;;;;;;;;;;4995463;28;20074;-79
2024/01/30 11:22:35;;;;;;;10.18;4.88;;;;;;;;;;4993186;28;20011;-80
2024/01/30 11:25:03;;;;;;;7.78;4.63;;;;;;;;;;4995333;28;20098;-83
2024/01/30 11:27:28;;;;;;;9.63;4.85;;;;;;;;;;4994812;28;20049;-79
2024/01/30 11:30:00;;;;;;;7.88;4.35;;;;;;;;;;4995421;28;20022;-79
2024/01/30 11:32:25;;;;;;;9.55;4.40;;;;;;;;;;4995474;28;20022;-77
2024/01/30 11:34:51;;;;;;;9.05;5.13;;;;;;;;;;4995179;28;20077;-79
2024/01/30 11:37:21;;;;;;;12.23;4.55;;;;;;;;;;4994928;28;20065;-80
2024/01/30 11:39:46;;;;;;;5.32;4.13;;;;;;;;;;4995124;28;20014;-79
2024/01/30 11:42:11;;;;;;;7.55;4.85;;;;;;;;;;4995222;28;20073;-79
2024/01/30 11:44:36;;;;;;;8.07;5.28;;;;;;;;;;4994963;28;20372;-80
2024/01/30 11:47:03;;;;;;;7.50;4.20;;;;;;;;;;4994789;28;20061;-80
2024/01/30 11:49:28;;;;;;;11.88;4.22;;;;;;;;;;4995985;28;20022;-79
2024/01/30 11:51:54;;;;;;;8.65;4.95;;;;;;;;;;4995656;28;20037;-80
2024/01/30 11:54:19;;;;;;;8.27;4.70;;;;;;;;;;4994952;28;20027;-80
2024/01/30 11:56:44;;;;;;;7.03;4.25;;;;;;;;;;4994317;28;20022;-78
2024/01/30 11:59:10;;;;;;;7.43;4.47;;;;;;;;;;4974819;28;20361;-76
2024/01/30 12:01:36;;;;;;;7.93;4.35;;;;;;;;;;4973646;28;20029;-80
2024/01/30 12:04:01;;;;;;;8.50;5.13;;;;;;;;;;4974777;28;20027;-77
2024/01/30 12:06:27;;;;;;;6.68;4.55;;;;;;;;;;4974585;28;20029;-77
2024/01/30 12:08:59;;;;;;;9.02;4.82;;;;;;;;;;4974554;28;20073;-76
2024/01/30 12:11:24;;;;;;;6.88;4.63;;;;;;;;;;4956885;28;20023;-78
2024/01/30 12:13:51;;;;;;;6.72;4.80;;;;;;;;;;4974338;28;20042;-77
2024/01/30 12:16:17;;;;;;;8.65;5.00;;;;;;;;;;4973762;28;20027;-78
2024/01/30 12:18:42;;;;;;;8.25;4.28;;;;;;;;;;4974374;28;20035;-78
2024/01/30 12:21:08;;;;;;;9.68;4.47;;;;;;;;;;4956805;28;20465;-77
2024/01/30 12:23:35;;;;;;;10.10;4.78;;;;;;;;;;4978240;28;20053;-79
2024/01/30 12:26:01;;;;;;;10.93;5.53;;;;;;;;;;4978533;28;20026;-76
2024/01/30 12:28:26;;;;;;;8.00;4.97;;;;;;;;;;4978694;28;20014;-79
2024/01/30 12:31:01;;;;;;;9.93;4.85;;;;;;;;;;4978441;28;20403;-79
2024/01/30 12:33:28;;;;;;;10.88;5.35;;;;;;;;;;4978050;28;20019;-79
2024/01/30 12:35:53;;;;;;;7.63;4.80;;;;;;;;;;4978648;28;20021;-77
2024/01/30 12:38:19;;;;;;;8.70;5.28;;;;;;;;;;4997399;28;20046;-79
2024/01/30 12:40:45;;;;;;;8.48;4.82;;;;;;;;;;4997619;28;20034;-79
2024/01/30 12:43:10;;;;;;;12.35;5.57;;;;;;;;;;4997459;28;20411;-79
2024/01/30 12:45:36;;;;;;;7.32;4.57;;;;;;;;;;4996794;28;20456;-77
2024/01/30 12:48:02;;;;;;;10.57;5.55;;;;;;;;;;4997591;28;20023;-79
2024/01/30 12:50:27;;;;;;;9.40;4.82;;;;;;;;;;4997350;28;20027;-79
2024/01/30 12:52:52;;;;;;;8.38;5.53;;;;;;;;;;5012431;28;20023;-77
2024/01/30 12:55:18;;;;;;;10.57;5.60;;;;;;;;;;4995616;28;20379;-78
2024/01/30 12:57:43;;;;;;;13.38;6.20;;;;;;;;;;4997360;28;20486;-80
2024/01/30 13:00:08;;;;;;;11.38;5.70;;;;;;;;;;4996292;28;20023;-77
2024/01/30 13:02:36;;;;;;;7.90;4.88;;;;;;;;;;4996769;28;20490;-78
2024/01/30 13:05:04;;;;;;;9.20;4.80;;;;;;;;;;4997436;28;20022;-80
2024/01/30 13:07:29;;;;;;;8.93;5.60;;;;;;;;;;5000872;28;20096;-77
2024/01/30 13:09:55;;;;;;;10.60;5.90;;;;;;;;;;5003256;28;20014;-77
2024/01/30 13:12:20;;;;;;;12.02;6.05;;;;;;;;;;5021033;28;20018;-75
2024/01/30 13:14:48;;;;;;;11.88;5.82;;;;;;;;;;5009924;28;20379;-76
2024/01/30 13:17:13;;;;;;;10.75;5.85;;;;;;;;;;5002672;28;20025;-74
2024/01/30 13:19:38;;;;;;;10.35;5.65;;;;;;;;;;5006935;28;20022;-75
2024/01/30 13:22:04;;;;;;;9.10;5.82;;;;;;;;;;5006364;28;20014;-75
2024/01/30 13:24:29;;;;;;;9.77;5.82;;;;;;;;;;5004691;28;20050;-75
2024/01/30 13:26:56;;;;;;;9.85;5.85;;;;;;;;;;5006766;28;20041;-75
2024/01/30 13:29:22;;;;;;;11.15;5.63;;;;;;;;;;5008695;28;20018;-74
2024/01/30 13:31:47;;;;;;;9.93;5.45;;;;;;;;;;5004724;28;20025;-74
2024/01/30 13:34:13;;;;;;;12.05;5.43;;;;;;;;;;5003076;28;20022;-77
2024/01/30 13:36:39;;;;;;;8.93;5.78;;;;;;;;;;5006490;28;20394;-79
2024/01/30 13:39:08;;;;;;;8.10;5.50;;;;;;;;;;5029693;28;20026;-83
2024/01/30 13:41:34;;;;;;;10.10;5.93;;;;;;;;;;5023752;28;20012;-83
2024/01/30 13:43:59;;;;;;;12.88;6.20;;;;;;;;;;5028774;28;20053;-86
2024/01/30 13:46:25;;;;;;;11.15;5.60;;;;;;;;;;5029831;28;19999;-83
2024/01/30 13:48:51;;;;;;;9.25;5.75;;;;;;;;;;5023920;28;20053;-86
2024/01/30 13:51:17;;;;;;;11.10;6.40;;;;;;;;;;5015090;28;20034;-81
2024/01/30 13:53:42;;;;;;;10.35;5.53;;;;;;;;;;5009084;28;20639;-79
2024/01/30 13:56:07;;;;;;;10.23;5.95;;;;;;;;;;5007282;28;20014;-78
2024/01/30 13:58:36;;;;;;;10.07;6.82;;;;;;;;;;5006413;28;20057;-77
2024/01/30 14:01:01;;;;;;;14.13;7.00;;;;;;;;;;5009895;28;20040;-80
2024/01/30 14:03:29;;;;;;;11.70;5.90;;;;;;;;;;5016903;28;20018;-81
2024/01/30 14:05:55;;;;;;;13.35;6.13;;;;;;;;;;5020908;28;20022;-79
2024/01/30 14:08:23;;;;;;;10.27;6.18;;;;;;;;;;5027465;28;20010;-79
2024/01/30 14:10:51;;;;;;;9.48;5.90;;;;;;;;;;5017990;28;20345;-78
2024/01/30 14:13:18;;;;;;;13.85;6.53;;;;;;;;;;5014466;28;20026;-80
2024/01/30 14:15:44;;;;;;;11.98;6.43;;;;;;;;;;5018236;28;20022;-78
2024/01/30 14:18:11;;;;;;;12.63;6.22;;;;;;;;;;5012082;28;20065;-78
2024/01/30 14:20:37;;;;;;;10.73;6.35;;;;;;;;;;5010471;28;20040;-77
2024/01/30 14:23:18;;;;;;;12.65;7.00;;;;;;;;;;5016481;28;20014;-82